createdAt,value
2019-03-21T00:02:13.724Z,39.73
2019-03-21T00:04:44.170Z,40.10
2019-03-21T00:07:13.553Z,48.33
2019-03-21T00:10:02.883Z,40.40
2019-03-21T00:12:33.885Z,42.70
2019-03-21T00:15:15.481Z,42.30
2019-03-21T00:17:47.269Z,50.45
2019-03-21T00:20:17.817Z,48.83
2019-03-21T00:22:47.201Z,47.30
2019-03-21T00:25:20.663Z,42.10
2019-03-21T00:27:50.101Z,43.65
2019-03-21T00:30:22.267Z,43.42
2019-03-21T00:32:52.579Z,42.70
2019-03-21T00:35:21.979Z,41.23
2019-03-21T00:37:51.503Z,41.40
2019-03-21T00:40:38.786Z,44.42
2019-03-21T00:43:10.600Z,40.88
2019-03-21T00:45:40.212Z,39.92
2019-03-21T00:48:12.286Z,41.15
2019-03-21T00:50:42.193Z,40.67
2019-03-21T00:53:11.637Z,39.18
2019-03-21T00:55:46.957Z,37.83
2019-03-21T00:58:16.695Z,38.78
2019-03-21T01:00:49.242Z,36.85
2019-03-21T01:03:18.729Z,38.88
2019-03-21T01:05:48.248Z,39.67
2019-03-21T01:08:17.620Z,40.28
2019-03-21T01:10:47.743Z,41.28
2019-03-21T01:13:17.085Z,40.23
2019-03-21T01:15:46.538Z,38.35
2019-03-21T01:18:17.425Z,39.58
2019-03-21T01:20:46.949Z,41.30
2019-03-21T01:23:17.920Z,41.05
2019-03-21T01:25:53.609Z,39.27
2019-03-21T01:28:22.949Z,40.12
2019-03-21T01:30:52.335Z,40.88
2019-03-21T01:33:21.679Z,40.83
2019-03-21T01:35:51.048Z,39.63
2019-03-21T01:38:21.001Z,38.55
2019-03-21T01:40:58.961Z,40.00
2019-03-21T01:43:28.306Z,40.55
2019-03-21T01:45:58.121Z,39.40
2019-03-21T01:48:27.692Z,40.05
2019-03-21T01:50:57.226Z,40.10
2019-03-21T01:53:26.577Z,41.95
2019-03-21T01:55:55.939Z,41.50
2019-03-21T01:58:25.461Z,41.53
2019-03-21T02:00:56.595Z,41.48
2019-03-21T02:03:26.546Z,42.38
2019-03-21T02:05:55.915Z,40.80
2019-03-21T02:08:25.265Z,41.70
2019-03-21T02:10:54.633Z,41.23
2019-03-21T02:13:23.982Z,42.23
2019-03-21T02:15:53.350Z,42.38
2019-03-21T02:18:23.013Z,41.40
2019-03-21T02:20:52.484Z,43.33
2019-03-21T02:23:22.066Z,41.70
2019-03-21T02:25:51.436Z,41.77
2019-03-21T02:28:20.873Z,41.00
2019-03-21T02:30:53.074Z,43.78
2019-03-21T02:33:28.545Z,45.78
2019-03-21T02:35:58.828Z,43.05
2019-03-21T02:38:28.286Z,44.50
2019-03-21T02:41:03.672Z,45.08
2019-03-21T02:43:33.296Z,47.30
2019-03-21T02:46:02.881Z,45.98
2019-03-21T02:48:32.332Z,49.88
2019-03-21T02:51:01.736Z,48.83
2019-03-21T02:53:31.244Z,51.83
2019-03-21T02:56:00.832Z,53.35
2019-03-21T02:58:30.226Z,57.53
2019-03-21T03:01:01.205Z,67.70
2019-03-21T03:03:30.636Z,71.45
2019-03-21T03:05:59.992Z,76.00
2019-03-21T03:08:30.445Z,58.85
2019-03-21T03:11:10.812Z,77.70
2019-03-21T03:13:41.786Z,59.93
2019-03-21T03:16:11.179Z,72.75
2019-03-21T03:18:41.751Z,78.55
2019-03-21T03:21:11.159Z,65.17
2019-03-21T03:23:40.593Z,76.37
2019-03-21T03:26:10.163Z,94.87
2019-03-21T03:28:45.430Z,64.82
2019-03-21T03:31:15.091Z,72.22
2019-03-21T03:33:44.950Z,66.90
2019-03-21T03:36:16.032Z,75.08
2019-03-21T03:38:45.470Z,92.37
2019-03-21T03:41:17.360Z,93.78
2019-03-21T03:43:46.715Z,102.75
2019-03-21T03:46:16.153Z,96.65
2019-03-21T03:48:45.500Z,79.53
2019-03-21T03:51:17.688Z,97.12
2019-03-21T03:53:47.177Z,72.30
2019-03-21T03:56:16.686Z,84.75
2019-03-21T03:58:56.572Z,61.92
2019-03-21T04:01:26.153Z,54.77
2019-03-21T04:03:55.866Z,62.38
2019-03-21T04:06:25.451Z,65.60
2019-03-21T04:08:54.962Z,100.10
2019-03-21T04:11:24.323Z,103.97
2019-03-21T04:13:53.679Z,80.38
2019-03-21T04:16:23.066Z,89.32
2019-03-21T04:18:52.501Z,92.40
2019-03-21T04:21:21.944Z,83.25
2019-03-21T04:23:52.364Z,93.72
2019-03-21T04:26:27.931Z,76.53
2019-03-21T04:28:57.340Z,76.82
2019-03-21T04:31:27.069Z,69.22
2019-03-21T04:33:59.669Z,79.65
2019-03-21T04:36:29.117Z,72.82
2019-03-21T04:38:58.542Z,72.40
2019-03-21T04:41:27.992Z,65.90
2019-03-21T04:43:57.423Z,60.83
2019-03-21T04:46:26.858Z,64.35
2019-03-21T04:48:56.207Z,69.87
2019-03-21T04:51:25.585Z,67.78
2019-03-21T04:53:54.956Z,68.78
2019-03-21T04:56:24.411Z,72.58
2019-03-21T04:58:53.792Z,71.80
2019-03-21T05:01:23.171Z,77.70
2019-03-21T05:03:52.727Z,68.15
2019-03-21T05:06:22.403Z,71.22
2019-03-21T05:08:51.840Z,80.53
2019-03-21T05:11:21.417Z,76.67
2019-03-21T05:13:50.959Z,71.55
2019-03-21T05:16:20.336Z,87.75
2019-03-21T05:18:58.372Z,87.05
2019-03-21T05:21:27.749Z,90.72
2019-03-21T05:23:57.200Z,86.32
2019-03-21T05:26:26.564Z,80.60
2019-03-21T05:28:55.963Z,86.10
2019-03-21T05:31:31.312Z,113.22
2019-03-21T05:34:00.731Z,116.00
2019-03-21T05:36:30.117Z,111.62
2019-03-21T05:38:59.609Z,92.17
2019-03-21T05:41:29.064Z,94.13
2019-03-21T05:44:01.492Z,79.35
2019-03-21T05:46:31.842Z,87.35
2019-03-21T05:49:01.198Z,71.90
2019-03-21T05:51:30.576Z,89.45
2019-03-21T05:54:00.191Z,68.07
2019-03-21T05:56:29.741Z,66.35
2019-03-21T05:58:59.099Z,71.50
2019-03-21T06:01:29.988Z,71.30
2019-03-21T06:03:59.515Z,70.05
2019-03-21T06:06:39.183Z,62.33
2019-03-21T06:09:14.835Z,61.40
2019-03-21T06:11:47.934Z,59.60
2019-03-21T06:14:17.298Z,63.73
2019-03-21T06:16:46.682Z,66.62
2019-03-21T06:19:22.021Z,66.02
2019-03-21T06:21:57.084Z,65.62
2019-03-21T06:24:41.405Z,61.90
2019-03-21T06:27:14.963Z,62.15
2019-03-21T06:29:44.579Z,68.12
2019-03-21T06:32:15.499Z,68.40
2019-03-21T06:34:44.898Z,68.22
2019-03-21T06:37:14.422Z,68.37
2019-03-21T06:39:43.857Z,65.25
2019-03-21T06:42:13.386Z,65.00
2019-03-21T06:44:42.978Z,64.37
2019-03-21T06:47:12.445Z,62.65
2019-03-21T06:49:41.873Z,60.48
2019-03-21T06:52:11.505Z,60.83
2019-03-21T06:54:40.920Z,62.00
2019-03-21T06:57:10.306Z,60.03
2019-03-21T06:59:39.704Z,61.30
2019-03-21T07:02:09.246Z,57.55
2019-03-21T07:04:39.144Z,56.48
2019-03-21T07:07:09.593Z,53.65
2019-03-21T07:09:39.168Z,50.70
2019-03-21T07:12:08.550Z,49.50
2019-03-21T07:14:37.916Z,46.28
2019-03-21T07:17:07.270Z,44.98
2019-03-21T07:19:36.727Z,43.10
2019-03-21T07:22:06.162Z,40.05
2019-03-21T07:24:35.661Z,39.33
2019-03-21T07:27:05.240Z,37.15
2019-03-21T07:29:35.573Z,35.35
2019-03-21T07:32:05.096Z,35.70
2019-03-21T07:34:34.702Z,33.38
2019-03-21T07:37:04.418Z,33.42
2019-03-21T07:39:33.952Z,31.00
2019-03-21T07:42:03.452Z,31.85
2019-03-21T07:44:32.939Z,32.70
2019-03-21T07:47:12.031Z,31.37
2019-03-21T07:49:33.492Z,30.62
2019-03-21T07:52:02.995Z,30.08
2019-03-21T07:54:32.385Z,30.88
2019-03-21T07:57:01.765Z,29.55
2019-03-21T07:59:31.335Z,27.67
2019-03-21T08:02:00.844Z,28.42
2019-03-21T08:04:30.188Z,27.73
2019-03-21T08:07:04.428Z,27.95
2019-03-21T08:09:36.928Z,29.72
2019-03-21T08:12:06.533Z,28.70
2019-03-21T08:14:35.955Z,28.92
2019-03-21T08:17:05.416Z,30.62
2019-03-21T08:19:34.825Z,30.90
2019-03-21T08:22:04.286Z,34.38
2019-03-21T08:24:33.675Z,33.95
2019-03-21T08:27:03.140Z,33.25
2019-03-21T08:29:32.495Z,32.48
2019-03-21T08:32:01.946Z,34.35
2019-03-21T08:34:31.390Z,33.42
2019-03-21T08:37:00.778Z,35.85
2019-03-21T08:39:31.297Z,36.70
2019-03-21T08:42:00.728Z,34.38
2019-03-21T08:44:30.271Z,35.95
2019-03-21T08:47:01.082Z,35.70
2019-03-21T08:49:30.465Z,34.13
2019-03-21T08:51:59.841Z,37.23
2019-03-21T08:54:29.744Z,36.03
2019-03-21T08:56:59.347Z,37.25
2019-03-21T08:59:28.793Z,35.63
2019-03-21T09:01:58.227Z,36.75
2019-03-21T09:04:27.597Z,36.58
2019-03-21T09:06:57.391Z,36.77
2019-03-21T09:09:26.772Z,36.68
2019-03-21T09:11:56.200Z,35.23
2019-03-21T09:14:25.593Z,36.70
2019-03-21T09:16:54.929Z,35.55
2019-03-21T09:19:24.371Z,34.13
2019-03-21T09:21:53.758Z,35.70
2019-03-21T09:24:23.316Z,33.10
2019-03-21T09:26:54.242Z,35.35
2019-03-21T09:29:25.173Z,35.95
2019-03-21T09:31:54.569Z,35.03
2019-03-21T09:34:24.085Z,36.85
2019-03-21T09:36:53.540Z,38.00
2019-03-21T09:39:22.936Z,36.50
2019-03-21T09:41:52.312Z,38.25
2019-03-21T09:44:24.042Z,39.10
2019-03-21T09:46:53.553Z,39.27
2019-03-21T09:49:23.151Z,42.70
2019-03-21T09:51:52.684Z,40.58
2019-03-21T09:54:22.089Z,40.38
2019-03-21T09:56:51.567Z,44.15
2019-03-21T09:59:20.943Z,39.05
2019-03-21T10:01:50.345Z,40.65
2019-03-21T10:04:19.859Z,43.23
2019-03-21T10:06:49.221Z,45.45
2019-03-21T10:09:18.689Z,46.28
2019-03-21T10:11:48.123Z,43.87
2019-03-21T10:14:17.757Z,42.75
2019-03-21T10:16:47.133Z,42.58
2019-03-21T10:19:16.542Z,41.45
2019-03-21T10:21:45.965Z,39.40
2019-03-21T10:24:15.468Z,40.25
2019-03-21T10:26:44.956Z,40.88
2019-03-21T10:29:14.458Z,41.42
2019-03-21T10:31:43.950Z,41.70
2019-03-21T10:34:13.396Z,41.10
2019-03-21T10:36:42.855Z,39.70
2019-03-21T10:39:12.940Z,38.33
2019-03-21T10:41:44.281Z,36.60
2019-03-21T10:44:13.732Z,37.85
2019-03-21T10:46:43.344Z,38.73
2019-03-21T10:49:12.777Z,40.40
2019-03-21T10:51:42.159Z,39.90
2019-03-21T10:54:11.645Z,37.35
2019-03-21T10:56:42.641Z,37.35
2019-03-21T10:59:12.040Z,37.48
2019-03-21T11:01:41.595Z,34.27
2019-03-21T11:04:11.100Z,32.65
2019-03-21T11:06:40.543Z,27.00
2019-03-21T11:09:10.056Z,29.80
2019-03-21T11:11:39.529Z,27.50
2019-03-21T11:14:08.898Z,27.50
2019-03-21T11:16:38.349Z,28.77
2019-03-21T11:19:09.321Z,30.37
2019-03-21T11:21:40.181Z,29.48
2019-03-21T11:24:09.575Z,28.20
2019-03-21T11:26:39.095Z,25.43
2019-03-21T11:29:08.671Z,26.82
2019-03-21T11:31:38.099Z,27.37
2019-03-21T11:34:07.662Z,26.82
2019-03-21T11:36:38.644Z,26.73
2019-03-21T11:39:08.744Z,27.05
2019-03-21T11:41:38.127Z,25.77
2019-03-21T11:44:08.050Z,26.60
2019-03-21T11:46:40.031Z,24.65
2019-03-21T11:49:11.397Z,25.40
2019-03-21T11:51:40.923Z,23.85
2019-03-21T11:54:10.329Z,26.07
2019-03-21T11:56:39.765Z,26.05
2019-03-21T11:59:09.189Z,24.82
2019-03-21T12:01:38.570Z,25.02
2019-03-21T12:04:07.945Z,24.02
2019-03-21T12:06:37.470Z,24.50
2019-03-21T12:09:07.588Z,24.12
2019-03-21T12:11:36.963Z,23.52
2019-03-21T12:14:06.406Z,23.80
2019-03-21T12:16:35.817Z,22.55
2019-03-21T12:19:05.199Z,22.67
2019-03-21T12:21:34.624Z,21.65
2019-03-21T12:24:05.620Z,23.27
2019-03-21T12:26:35.045Z,22.85
2019-03-21T12:29:04.581Z,23.05
2019-03-21T12:31:33.996Z,22.62
2019-03-21T12:34:03.517Z,23.52
2019-03-21T12:36:32.955Z,23.73
2019-03-21T12:39:02.503Z,23.15
2019-03-21T12:41:32.215Z,23.57
2019-03-21T12:44:01.625Z,24.18
2019-03-21T12:46:31.007Z,22.87
2019-03-21T12:49:00.380Z,23.73
2019-03-21T12:51:29.933Z,22.35
2019-03-21T12:53:59.374Z,23.45
2019-03-21T12:56:28.800Z,24.18
2019-03-21T12:58:58.240Z,24.02
2019-03-21T13:01:27.774Z,25.20
2019-03-21T13:03:57.440Z,24.00
2019-03-21T13:06:26.809Z,23.35
2019-03-21T13:08:56.270Z,24.50
2019-03-21T13:11:27.332Z,23.95
2019-03-21T13:13:56.667Z,24.60
2019-03-21T13:16:26.122Z,23.25
2019-03-21T13:18:55.470Z,23.38
2019-03-21T13:21:25.908Z,23.90
2019-03-21T13:23:55.427Z,25.20
2019-03-21T13:26:24.883Z,25.00
2019-03-21T13:28:54.306Z,25.68
2019-03-21T13:31:23.976Z,25.02
2019-03-21T13:33:53.589Z,23.95
2019-03-21T13:36:23.101Z,23.70
2019-03-21T13:38:52.478Z,23.73
2019-03-21T13:41:21.862Z,23.83
2019-03-21T13:43:51.299Z,22.90
2019-03-21T13:46:20.736Z,22.65
2019-03-21T13:48:50.106Z,22.90
2019-03-21T13:51:21.084Z,23.65
2019-03-21T13:53:50.450Z,23.30
2019-03-21T13:56:19.918Z,23.50
2019-03-21T13:58:49.269Z,23.87
2019-03-21T14:01:18.792Z,23.83
2019-03-21T14:03:48.145Z,22.60
2019-03-21T14:06:17.960Z,23.47
2019-03-21T14:08:47.344Z,25.35
2019-03-21T14:11:19.364Z,22.95
2019-03-21T14:13:48.993Z,22.95
2019-03-21T14:16:18.902Z,23.40
2019-03-21T14:18:48.314Z,23.00
2019-03-21T14:21:17.685Z,22.98
2019-03-21T14:23:47.031Z,23.47
2019-03-21T14:26:16.427Z,24.52
2019-03-21T14:28:45.832Z,23.18
2019-03-21T14:31:15.268Z,23.45
2019-03-21T14:33:44.754Z,23.32
2019-03-21T14:36:16.160Z,24.20
2019-03-21T14:38:45.667Z,26.65
2019-03-21T14:41:15.133Z,27.05
2019-03-21T14:43:44.511Z,27.27
2019-03-21T14:46:14.166Z,25.92
2019-03-21T14:48:44.115Z,26.57
2019-03-21T14:51:13.722Z,26.48
2019-03-21T14:53:43.192Z,27.67
2019-03-21T14:56:12.663Z,25.45
2019-03-21T14:58:43.637Z,27.98
2019-03-21T15:01:13.013Z,27.32
2019-03-21T15:03:42.442Z,27.87
2019-03-21T15:06:11.949Z,27.98
2019-03-21T15:08:41.490Z,28.92
2019-03-21T15:11:16.944Z,29.27
2019-03-21T15:13:43.483Z,28.47
2019-03-21T15:16:13.666Z,28.10
2019-03-21T15:18:43.577Z,28.02
2019-03-21T15:21:12.972Z,28.32
2019-03-21T15:23:44.108Z,27.95
2019-03-21T15:26:13.650Z,28.23
2019-03-21T15:28:43.052Z,27.93
2019-03-21T15:31:12.510Z,29.50
2019-03-21T15:33:43.409Z,30.85
2019-03-21T15:36:12.782Z,31.00
2019-03-21T15:38:42.171Z,32.55
2019-03-21T15:41:11.743Z,32.90
2019-03-21T15:43:41.148Z,31.87
2019-03-21T15:46:10.615Z,28.73
2019-03-21T15:48:40.018Z,29.60
2019-03-21T15:51:10.012Z,29.20
2019-03-21T15:53:39.443Z,28.32
2019-03-21T15:56:08.877Z,27.93
2019-03-21T15:58:39.326Z,28.70
2019-03-21T16:01:08.703Z,29.18
2019-03-21T16:03:38.071Z,29.25
2019-03-21T16:06:07.553Z,29.75
2019-03-21T16:08:36.981Z,30.85
2019-03-21T16:11:06.424Z,30.20
2019-03-21T16:13:35.889Z,30.90
2019-03-21T16:16:05.353Z,31.55
2019-03-21T16:18:34.946Z,32.60
2019-03-21T16:21:06.076Z,32.93
2019-03-21T16:23:35.605Z,31.93
2019-03-21T16:26:05.041Z,32.45
2019-03-21T16:28:34.581Z,32.98
2019-03-21T16:31:03.954Z,33.73
2019-03-21T16:33:33.350Z,33.67
2019-03-21T16:36:04.312Z,34.05
2019-03-21T16:38:33.805Z,32.10
2019-03-21T16:41:03.159Z,32.67
2019-03-21T16:43:32.681Z,33.15
2019-03-21T16:46:02.488Z,34.03
2019-03-21T16:48:32.004Z,33.10
2019-03-21T16:51:03.018Z,33.18
2019-03-21T16:53:33.834Z,34.08
2019-03-21T16:56:03.263Z,32.90
2019-03-21T16:58:33.752Z,33.92
2019-03-21T17:01:03.101Z,34.27
2019-03-21T17:03:33.650Z,35.03
2019-03-21T17:06:03.004Z,36.53
2019-03-21T17:08:32.375Z,35.23
2019-03-21T17:11:01.747Z,36.25
2019-03-21T17:13:31.571Z,38.00
2019-03-21T17:16:01.024Z,38.17
2019-03-21T17:18:30.384Z,38.70
2019-03-21T17:21:00.333Z,38.28
2019-03-21T17:23:29.701Z,38.58
2019-03-21T17:25:59.098Z,39.40
2019-03-21T17:28:28.520Z,38.88
2019-03-21T17:30:57.911Z,38.25
2019-03-21T17:33:27.265Z,39.40
2019-03-21T17:35:56.697Z,38.90
2019-03-21T17:38:26.253Z,39.75
2019-03-21T17:40:55.723Z,40.70
2019-03-21T17:43:25.204Z,40.28
2019-03-21T17:45:55.376Z,40.45
2019-03-21T17:48:24.907Z,40.90
2019-03-21T17:50:54.636Z,40.12
2019-03-21T17:53:24.033Z,41.45
2019-03-21T17:55:53.472Z,43.45
2019-03-21T17:58:23.936Z,42.80
2019-03-21T18:00:53.301Z,41.02
2019-03-21T18:03:22.939Z,42.85
2019-03-21T18:05:52.347Z,42.08
2019-03-21T18:08:21.795Z,45.17
2019-03-21T18:10:51.223Z,42.50
2019-03-21T18:13:20.727Z,43.15
2019-03-21T18:15:50.409Z,43.92
2019-03-21T18:18:19.913Z,45.52
2019-03-21T18:20:49.440Z,43.63
2019-03-21T18:23:18.926Z,43.15
2019-03-21T18:25:48.447Z,44.75
2019-03-21T18:28:17.838Z,43.87
2019-03-21T18:30:47.488Z,43.42
2019-03-21T18:33:19.206Z,38.60
2019-03-21T18:35:48.049Z,38.35
2019-03-21T18:38:18.626Z,39.40
2019-03-21T18:40:48.216Z,36.95
2019-03-21T18:43:17.704Z,38.20
2019-03-21T18:45:47.136Z,38.42
2019-03-21T18:48:16.556Z,36.48
2019-03-21T18:50:46.085Z,35.60
2019-03-21T18:53:15.502Z,34.58
2019-03-21T18:55:44.852Z,34.40
2019-03-21T18:58:14.268Z,33.63
2019-03-21T19:00:43.845Z,33.08
2019-03-21T19:03:13.217Z,33.02
2019-03-21T19:05:42.591Z,33.13
2019-03-21T19:08:13.730Z,32.78
2019-03-21T19:10:43.408Z,31.45
2019-03-21T19:13:12.958Z,31.55
2019-03-21T19:15:42.519Z,31.93
2019-03-21T19:18:11.958Z,32.00
2019-03-21T19:20:40.998Z,33.42
2019-03-21T19:23:11.397Z,38.15
2019-03-21T19:25:40.915Z,38.53
2019-03-21T19:28:10.595Z,38.45
2019-03-21T19:30:40.228Z,38.38
2019-03-21T19:33:09.719Z,38.92
2019-03-21T19:35:39.152Z,38.85
2019-03-21T19:38:08.551Z,39.53
2019-03-21T19:40:38.158Z,39.78
2019-03-21T19:43:07.728Z,43.92
2019-03-21T19:45:37.234Z,39.23
2019-03-21T19:48:08.367Z,46.10
2019-03-21T19:50:38.488Z,34.98
2019-03-21T19:53:08.030Z,42.38
2019-03-21T19:55:37.589Z,47.48
2019-03-21T19:58:08.050Z,45.33
2019-03-21T20:00:37.451Z,44.20
2019-03-21T20:03:06.951Z,50.33
2019-03-21T20:05:36.633Z,50.70
2019-03-21T20:08:06.159Z,62.38
2019-03-21T20:10:35.650Z,49.67
2019-03-21T20:13:06.226Z,56.50
2019-03-21T20:15:35.843Z,65.28
2019-03-21T20:18:05.447Z,50.48
2019-03-21T20:20:34.926Z,48.78
2019-03-21T20:23:04.500Z,58.42
2019-03-21T20:25:42.947Z,43.48
2019-03-21T20:28:05.321Z,68.47
2019-03-21T20:30:34.923Z,48.63
2019-03-21T20:33:10.979Z,48.87
2019-03-21T20:35:40.459Z,71.15
2019-03-21T20:38:09.983Z,67.87
2019-03-21T20:40:39.480Z,67.22
2019-03-21T20:43:09.041Z,53.23
2019-03-21T20:45:40.079Z,59.75
2019-03-21T20:48:09.557Z,81.42
2019-03-21T20:50:39.031Z,83.97
2019-03-21T20:53:08.593Z,73.60
2019-03-21T20:55:37.993Z,73.92
2019-03-21T20:58:07.563Z,77.78
2019-03-21T21:00:36.981Z,66.87
2019-03-21T21:03:06.969Z,87.85
2019-03-21T21:05:36.473Z,79.60
2019-03-21T21:08:05.947Z,75.50
2019-03-21T21:10:35.851Z,78.15
2019-03-21T21:13:06.958Z,62.53
2019-03-21T21:15:37.562Z,68.60
2019-03-21T21:18:07.095Z,76.25
2019-03-21T21:20:36.510Z,73.50
2019-03-21T21:23:06.047Z,83.50
2019-03-21T21:25:35.829Z,82.42
2019-03-21T21:28:05.332Z,59.38
2019-03-21T21:30:34.696Z,57.05
2019-03-21T21:33:04.229Z,64.22
2019-03-21T21:35:33.699Z,48.48
2019-03-21T21:38:03.084Z,57.55
2019-03-21T21:40:33.721Z,57.45
2019-03-21T21:43:03.120Z,57.70
2019-03-21T21:45:32.494Z,45.30
2019-03-21T21:48:01.947Z,56.25
2019-03-21T21:50:31.363Z,70.92
2019-03-21T21:53:00.773Z,72.92
2019-03-21T21:55:30.187Z,50.30
2019-03-21T21:58:01.355Z,62.53
2019-03-21T22:00:30.808Z,55.28
2019-03-21T22:03:00.301Z,66.47
2019-03-21T22:05:31.357Z,53.50
2019-03-21T22:08:00.860Z,51.30
2019-03-21T22:10:30.489Z,85.95
2019-03-21T22:13:00.009Z,65.60
2019-03-21T22:15:29.390Z,60.33
2019-03-21T22:17:58.887Z,67.27
2019-03-21T22:20:28.437Z,70.97
2019-03-21T22:22:58.164Z,73.05
2019-03-21T22:25:27.504Z,69.97
2019-03-21T22:27:56.942Z,65.75
2019-03-21T22:30:26.354Z,80.83
2019-03-21T22:32:55.856Z,60.95
2019-03-21T22:35:25.277Z,54.13
2019-03-21T22:37:54.636Z,68.15
2019-03-21T22:40:24.053Z,95.87
2019-03-21T22:42:54.962Z,80.38
2019-03-21T22:45:26.029Z,82.57
2019-03-21T22:47:55.405Z,74.30
2019-03-21T22:50:24.788Z,79.12
2019-03-21T22:52:54.513Z,78.90
2019-03-21T22:55:23.905Z,81.80
2019-03-21T22:57:53.296Z,86.15
2019-03-21T23:00:42.418Z,99.25
2019-03-21T23:03:13.216Z,88.10
2019-03-21T23:05:42.657Z,79.30
2019-03-21T23:08:13.613Z,93.35
2019-03-21T23:10:45.010Z,116.03
2019-03-21T23:13:14.160Z,92.88
2019-03-21T23:15:43.644Z,87.72
2019-03-21T23:18:13.099Z,88.67
2019-03-21T23:20:42.696Z,100.53
2019-03-21T23:23:12.104Z,84.32
2019-03-21T23:25:41.475Z,86.67
2019-03-21T23:28:11.687Z,98.42
2019-03-21T23:30:41.129Z,102.27
2019-03-21T23:33:10.663Z,61.67
2019-03-21T23:35:42.060Z,91.05
2019-03-21T23:38:11.425Z,95.03
2019-03-21T23:40:41.006Z,93.47
2019-03-21T23:43:10.481Z,107.55
2019-03-21T23:45:41.453Z,90.03
2019-03-21T23:48:12.005Z,93.92
2019-03-21T23:50:41.373Z,104.40
2019-03-21T23:53:10.869Z,113.42
2019-03-21T23:55:40.219Z,118.13
2019-03-21T23:58:09.611Z,110.30
